sensor_id;sensor_type;location;lat;lon;timestamp;P1;durP1;ratioP1;P2;durP2;ratioP2
29730;SDS011;16639;51.488;0.152;2024-01-30T00:02:02;36.13;;;13.50;;
29730;SDS011;16639;51.488;0.152;2024-01-30T00:04:30;32.03;;;13.70;;
29730;SDS011;16639;51.488;0.152;2024-01-30T00:06:57;37.70;;;15.10;;
29730;SDS011;16639;51.488;0.152;2024-01-30T00:09:24;28.67;;;13.20;;
29730;SDS011;16639;51.488;0.152;2024-01-30T00:11:52;29.88;;;14.27;;
29730;SDS011;16639;51.488;0.152;2024-01-30T00:14:19;31.38;;;14.02;;
29730;SDS011;16639;51.488;0.152;2024-01-30T00:16:47;35.50;;;14.00;;
29730;SDS011;16639;51.488;0.152;2024-01-30T00:19:14;26.30;;;11.93;;
29730;SDS011;16639;51.488;0.152;2024-01-30T00:21:41;29.92;;;13.38;;
29730;SDS011;16639;51.488;0.152;2024-01-30T00:24:09;30.95;;;14.00;;
29730;SDS011;16639;51.488;0.152;2024-01-30T00:26:36;25.52;;;13.02;;
29730;SDS011;16639;51.488;0.152;2024-01-30T00:29:04;34.80;;;14.15;;
29730;SDS011;16639;51.488;0.152;2024-01-30T00:31:32;32.85;;;11.70;;
29730;SDS011;16639;51.488;0.152;2024-01-30T00:33:59;34.22;;;12.80;;
29730;SDS011;16639;51.488;0.152;2024-01-30T00:36:27;25.40;;;11.85;;
29730;SDS011;16639;51.488;0.152;2024-01-30T00:38:56;29.58;;;13.15;;
29730;SDS011;16639;51.488;0.152;2024-01-30T00:41:24;28.02;;;13.10;;
29730;SDS011;16639;51.488;0.152;2024-01-30T00:43:51;31.60;;;13.07;;
29730;SDS011;16639;51.488;0.152;2024-01-30T00:46:19;33.00;;;12.57;;
29730;SDS011;16639;51.488;0.152;2024-01-30T00:48:46;29.52;;;11.88;;
29730;SDS011;16639;51.488;0.152;2024-01-30T00:51:14;28.13;;;11.77;;
29730;SDS011;16639;51.488;0.152;2024-01-30T00:53:41;22.58;;;11.30;;
29730;SDS011;16639;51.488;0.152;2024-01-30T00:56:09;25.30;;;12.00;;
29730;SDS011;16639;51.488;0.152;2024-01-30T00:58:36;31.80;;;11.90;;
29730;SDS011;16639;51.488;0.152;2024-01-30T01:01:03;22.38;;;10.05;;
29730;SDS011;16639;51.488;0.152;2024-01-30T01:03:31;17.90;;;9.60;;
29730;SDS011;16639;51.488;0.152;2024-01-30T01:05:58;22.15;;;9.02;;
29730;SDS011;16639;51.488;0.152;2024-01-30T01:08:26;18.92;;;8.90;;
29730;SDS011;16639;51.488;0.152;2024-01-30T01:10:53;17.23;;;8.32;;
29730;SDS011;16639;51.488;0.152;2024-01-30T01:13:21;27.70;;;8.63;;
29730;SDS011;16639;51.488;0.152;2024-01-30T01:15:48;16.75;;;8.27;;
29730;SDS011;16639;51.488;0.152;2024-01-30T01:18:15;26.27;;;7.68;;
29730;SDS011;16639;51.488;0.152;2024-01-30T01:20:43;12.82;;;6.50;;
29730;SDS011;16639;51.488;0.152;2024-01-30T01:23:11;12.85;;;6.75;;
29730;SDS011;16639;51.488;0.152;2024-01-30T01:25:38;14.10;;;5.68;;
29730;SDS011;16639;51.488;0.152;2024-01-30T01:28:06;16.73;;;5.45;;
29730;SDS011;16639;51.488;0.152;2024-01-30T01:30:33;16.20;;;4.78;;
29730;SDS011;16639;51.488;0.152;2024-01-30T01:33:00;12.15;;;4.55;;
29730;SDS011;16639;51.488;0.152;2024-01-30T01:35:29;13.23;;;5.30;;
29730;SDS011;16639;51.488;0.152;2024-01-30T01:37:56;10.02;;;4.57;;
29730;SDS011;16639;51.488;0.152;2024-01-30T01:40:27;11.05;;;4.28;;
29730;SDS011;16639;51.488;0.152;2024-01-30T01:42:55;11.95;;;4.05;;
29730;SDS011;16639;51.488;0.152;2024-01-30T01:45:22;11.10;;;4.53;;
29730;SDS011;16639;51.488;0.152;2024-01-30T01:47:50;12.45;;;4.35;;
29730;SDS011;16639;51.488;0.152;2024-01-30T01:50:20;9.38;;;4.53;;
29730;SDS011;16639;51.488;0.152;2024-01-30T01:52:49;6.30;;;3.20;;
29730;SDS011;16639;51.488;0.152;2024-01-30T01:55:18;7.65;;;2.83;;
29730;SDS011;16639;51.488;0.152;2024-01-30T01:57:53;11.23;;;2.90;;
29730;SDS011;16639;51.488;0.152;2024-01-30T02:00:21;3.92;;;2.10;;
29730;SDS011;16639;51.488;0.152;2024-01-30T02:02:49;4.93;;;2.38;;
29730;SDS011;16639;51.488;0.152;2024-01-30T02:05:17;6.65;;;2.03;;
29730;SDS011;16639;51.488;0.152;2024-01-30T02:07:45;8.68;;;1.90;;
29730;SDS011;16639;51.488;0.152;2024-01-30T02:10:13;7.75;;;2.38;;
29730;SDS011;16639;51.488;0.152;2024-01-30T02:12:41;9.32;;;2.85;;
29730;SDS011;16639;51.488;0.152;2024-01-30T02:15:08;10.15;;;2.28;;
29730;SDS011;16639;51.488;0.152;2024-01-30T02:17:40;6.53;;;2.63;;
29730;SDS011;16639;51.488;0.152;2024-01-30T02:20:08;9.48;;;1.95;;
29730;SDS011;16639;51.488;0.152;2024-01-30T02:22:36;8.52;;;2.28;;
29730;SDS011;16639;51.488;0.152;2024-01-30T02:25:05;7.47;;;1.90;;
29730;SDS011;16639;51.488;0.152;2024-01-30T02:27:33;8.20;;;2.22;;
29730;SDS011;16639;51.488;0.152;2024-01-30T02:30:00;5.40;;;1.73;;
29730;SDS011;16639;51.488;0.152;2024-01-30T02:32:27;10.95;;;2.22;;
29730;SDS011;16639;51.488;0.152;2024-01-30T02:34:55;19.00;;;3.40;;
29730;SDS011;16639;51.488;0.152;2024-01-30T02:37:23;10.82;;;3.13;;
29730;SDS011;16639;51.488;0.152;2024-01-30T02:39:50;8.45;;;1.92;;
29730;SDS011;16639;51.488;0.152;2024-01-30T02:42:17;12.70;;;2.22;;
29730;SDS011;16639;51.488;0.152;2024-01-30T02:44:45;12.18;;;2.83;;
29730;SDS011;16639;51.488;0.152;2024-01-30T02:47:12;10.18;;;1.92;;
29730;SDS011;16639;51.488;0.152;2024-01-30T02:49:39;8.48;;;2.70;;
29730;SDS011;16639;51.488;0.152;2024-01-30T02:52:07;10.32;;;2.15;;
29730;SDS011;16639;51.488;0.152;2024-01-30T02:54:34;11.68;;;2.90;;
29730;SDS011;16639;51.488;0.152;2024-01-30T02:57:02;9.10;;;1.92;;
29730;SDS011;16639;51.488;0.152;2024-01-30T02:59:29;4.68;;;1.50;;
29730;SDS011;16639;51.488;0.152;2024-01-30T03:02:00;8.80;;;2.20;;
29730;SDS011;16639;51.488;0.152;2024-01-30T03:04:27;4.47;;;1.98;;
29730;SDS011;16639;51.488;0.152;2024-01-30T03:06:57;4.50;;;1.38;;
29730;SDS011;16639;51.488;0.152;2024-01-30T03:09:24;7.35;;;1.73;;
29730;SDS011;16639;51.488;0.152;2024-01-30T03:11:52;8.13;;;1.95;;
29730;SDS011;16639;51.488;0.152;2024-01-30T03:14:19;7.60;;;1.67;;
29730;SDS011;16639;51.488;0.152;2024-01-30T03:16:47;7.07;;;1.58;;
29730;SDS011;16639;51.488;0.152;2024-01-30T03:19:14;9.98;;;2.05;;
29730;SDS011;16639;51.488;0.152;2024-01-30T03:21:41;6.90;;;1.60;;
29730;SDS011;16639;51.488;0.152;2024-01-30T03:24:09;11.13;;;1.95;;
29730;SDS011;16639;51.488;0.152;2024-01-30T03:26:36;11.82;;;1.63;;
29730;SDS011;16639;51.488;0.152;2024-01-30T03:29:04;8.70;;;2.08;;
29730;SDS011;16639;51.488;0.152;2024-01-30T03:31:31;7.20;;;2.03;;
29730;SDS011;16639;51.488;0.152;2024-01-30T03:33:59;5.80;;;1.80;;
29730;SDS011;16639;51.488;0.152;2024-01-30T03:36:27;4.20;;;1.60;;
29730;SDS011;16639;51.488;0.152;2024-01-30T03:38:55;4.70;;;1.45;;
29730;SDS011;16639;51.488;0.152;2024-01-30T03:41:22;8.40;;;1.70;;
29730;SDS011;16639;51.488;0.152;2024-01-30T03:43:50;6.78;;;1.70;;
29730;SDS011;16639;51.488;0.152;2024-01-30T03:46:17;13.60;;;3.50;;
29730;SDS011;16639;51.488;0.152;2024-01-30T03:48:45;8.65;;;1.52;;
29730;SDS011;16639;51.488;0.152;2024-01-30T03:51:13;11.43;;;2.20;;
29730;SDS011;16639;51.488;0.152;2024-01-30T03:53:41;18.10;;;3.25;;
29730;SDS011;16639;51.488;0.152;2024-01-30T03:56:09;11.48;;;2.47;;
29730;SDS011;16639;51.488;0.152;2024-01-30T03:58:37;8.93;;;1.85;;
29730;SDS011;16639;51.488;0.152;2024-01-30T04:01:04;6.00;;;1.95;;
29730;SDS011;16639;51.488;0.152;2024-01-30T04:03:32;12.63;;;2.40;;
29730;SDS011;16639;51.488;0.152;2024-01-30T04:05:59;13.63;;;3.53;;
29730;SDS011;16639;51.488;0.152;2024-01-30T04:08:27;12.90;;;2.40;;
29730;SDS011;16639;51.488;0.152;2024-01-30T04:10:54;11.05;;;2.28;;
29730;SDS011;16639;51.488;0.152;2024-01-30T04:13:22;9.70;;;2.22;;
29730;SDS011;16639;51.488;0.152;2024-01-30T04:15:49;3.45;;;1.40;;
29730;SDS011;16639;51.488;0.152;2024-01-30T04:18:16;7.68;;;1.52;;
29730;SDS011;16639;51.488;0.152;2024-01-30T04:20:44;5.07;;;1.60;;
29730;SDS011;16639;51.488;0.152;2024-01-30T04:23:12;5.75;;;1.65;;
29730;SDS011;16639;51.488;0.152;2024-01-30T04:25:39;3.65;;;1.40;;
29730;SDS011;16639;51.488;0.152;2024-01-30T04:28:07;4.13;;;1.63;;
29730;SDS011;16639;51.488;0.152;2024-01-30T04:30:34;6.93;;;1.13;;
29730;SDS011;16639;51.488;0.152;2024-01-30T04:33:02;3.13;;;1.75;;
29730;SDS011;16639;51.488;0.152;2024-01-30T04:35:30;1.85;;;1.10;;
29730;SDS011;16639;51.488;0.152;2024-01-30T04:37:57;2.15;;;1.15;;
29730;SDS011;16639;51.488;0.152;2024-01-30T04:40:25;3.85;;;1.42;;
29730;SDS011;16639;51.488;0.152;2024-01-30T04:42:52;2.35;;;0.75;;
29730;SDS011;16639;51.488;0.152;2024-01-30T04:45:20;4.05;;;1.25;;
29730;SDS011;16639;51.488;0.152;2024-01-30T04:47:47;1.50;;;1.20;;
29730;SDS011;16639;51.488;0.152;2024-01-30T04:50:15;4.63;;;1.50;;
29730;SDS011;16639;51.488;0.152;2024-01-30T04:52:42;5.72;;;1.17;;
29730;SDS011;16639;51.488;0.152;2024-01-30T04:55:10;3.85;;;1.40;;
29730;SDS011;16639;51.488;0.152;2024-01-30T04:57:37;2.83;;;2.15;;
29730;SDS011;16639;51.488;0.152;2024-01-30T05:00:05;5.15;;;1.95;;
29730;SDS011;16639;51.488;0.152;2024-01-30T05:02:33;3.58;;;1.20;;
29730;SDS011;16639;51.488;0.152;2024-01-30T05:05:00;4.03;;;1.27;;
29730;SDS011;16639;51.488;0.152;2024-01-30T05:07:27;4.25;;;1.77;;
29730;SDS011;16639;51.488;0.152;2024-01-30T05:09:55;3.50;;;1.42;;
29730;SDS011;16639;51.488;0.152;2024-01-30T05:12:25;5.75;;;1.25;;
29730;SDS011;16639;51.488;0.152;2024-01-30T05:14:53;2.70;;;1.58;;
29730;SDS011;16639;51.488;0.152;2024-01-30T05:17:20;4.10;;;1.70;;
29730;SDS011;16639;51.488;0.152;2024-01-30T05:19:48;2.22;;;1.25;;
29730;SDS011;16639;51.488;0.152;2024-01-30T05:22:16;3.63;;;1.60;;
29730;SDS011;16639;51.488;0.152;2024-01-30T05:24:45;2.45;;;1.20;;
29730;SDS011;16639;51.488;0.152;2024-01-30T05:27:13;2.13;;;1.35;;
29730;SDS011;16639;51.488;0.152;2024-01-30T05:29:41;1.73;;;1.45;;
29730;SDS011;16639;51.488;0.152;2024-01-30T05:32:08;3.35;;;1.35;;
29730;SDS011;16639;51.488;0.152;2024-01-30T05:34:36;2.28;;;1.30;;
29730;SDS011;16639;51.488;0.152;2024-01-30T05:37:04;7.43;;;1.88;;
29730;SDS011;16639;51.488;0.152;2024-01-30T05:39:31;6.68;;;1.83;;
29730;SDS011;16639;51.488;0.152;2024-01-30T05:42:00;7.05;;;1.70;;
29730;SDS011;16639;51.488;0.152;2024-01-30T05:44:27;3.10;;;1.60;;
29730;SDS011;16639;51.488;0.152;2024-01-30T05:46:54;4.82;;;1.95;;
29730;SDS011;16639;51.488;0.152;2024-01-30T05:49:22;2.90;;;1.60;;
29730;SDS011;16639;51.488;0.152;2024-01-30T05:51:49;2.25;;;1.65;;
29730;SDS011;16639;51.488;0.152;2024-01-30T05:54:17;1.95;;;1.45;;
29730;SDS011;16639;51.488;0.152;2024-01-30T05:56:44;4.55;;;2.17;;
29730;SDS011;16639;51.488;0.152;2024-01-30T05:59:12;6.00;;;2.22;;
29730;SDS011;16639;51.488;0.152;2024-01-30T06:01:45;4.30;;;1.95;;
29730;SDS011;16639;51.488;0.152;2024-01-30T06:04:13;4.10;;;2.10;;
29730;SDS011;16639;51.488;0.152;2024-01-30T06:06:41;5.00;;;2.35;;
29730;SDS011;16639;51.488;0.152;2024-01-30T06:09:09;4.57;;;2.22;;
29730;SDS011;16639;51.488;0.152;2024-01-30T06:11:36;2.95;;;1.88;;
29730;SDS011;16639;51.488;0.152;2024-01-30T06:14:03;2.45;;;1.70;;
29730;SDS011;16639;51.488;0.152;2024-01-30T06:16:31;3.88;;;2.40;;
29730;SDS011;16639;51.488;0.152;2024-01-30T06:18:58;3.25;;;1.27;;
29730;SDS011;16639;51.488;0.152;2024-01-30T06:21:27;1.55;;;1.40;;
29730;SDS011;16639;51.488;0.152;2024-01-30T06:23:54;1.13;;;1.02;;
29730;SDS011;16639;51.488;0.152;2024-01-30T06:26:21;4.13;;;1.65;;
29730;SDS011;16639;51.488;0.152;2024-01-30T06:28:49;2.42;;;1.85;;
29730;SDS011;16639;51.488;0.152;2024-01-30T06:31:16;1.55;;;1.45;;
29730;SDS011;16639;51.488;0.152;2024-01-30T06:33:46;1.73;;;1.27;;
29730;SDS011;16639;51.488;0.152;2024-01-30T06:36:14;3.25;;;1.63;;
29730;SDS011;16639;51.488;0.152;2024-01-30T06:38:41;2.40;;;1.75;;
29730;SDS011;16639;51.488;0.152;2024-01-30T06:41:09;5.20;;;2.30;;
29730;SDS011;16639;51.488;0.152;2024-01-30T06:43:36;4.55;;;1.98;;
29730;SDS011;16639;51.488;0.152;2024-01-30T06:46:03;2.28;;;1.65;;
29730;SDS011;16639;51.488;0.152;2024-01-30T06:48:31;3.13;;;1.35;;
29730;SDS011;16639;51.488;0.152;2024-01-30T06:50:58;2.80;;;1.50;;
29730;SDS011;16639;51.488;0.152;2024-01-30T06:53:26;2.58;;;1.98;;
29730;SDS011;16639;51.488;0.152;2024-01-30T06:55:53;2.50;;;1.85;;
29730;SDS011;16639;51.488;0.152;2024-01-30T06:58:20;5.38;;;2.17;;
29730;SDS011;16639;51.488;0.152;2024-01-30T07:00:48;4.20;;;2.88;;
29730;SDS011;16639;51.488;0.152;2024-01-30T07:03:15;5.90;;;2.67;;
29730;SDS011;16639;51.488;0.152;2024-01-30T07:05:43;5.93;;;3.35;;
29730;SDS011;16639;51.488;0.152;2024-01-30T07:08:10;5.15;;;3.38;;
29730;SDS011;16639;51.488;0.152;2024-01-30T07:10:38;9.30;;;3.60;;
29730;SDS011;16639;51.488;0.152;2024-01-30T07:13:05;6.35;;;3.65;;
29730;SDS011;16639;51.488;0.152;2024-01-30T07:15:33;7.82;;;4.55;;
29730;SDS011;16639;51.488;0.152;2024-01-30T07:18:00;8.07;;;4.03;;
29730;SDS011;16639;51.488;0.152;2024-01-30T07:20:28;5.47;;;4.05;;
29730;SDS011;16639;51.488;0.152;2024-01-30T07:22:57;14.80;;;4.07;;
29730;SDS011;16639;51.488;0.152;2024-01-30T07:25:25;7.43;;;4.20;;
29730;SDS011;16639;51.488;0.152;2024-01-30T07:27:57;4.40;;;3.55;;
29730;SDS011;16639;51.488;0.152;2024-01-30T07:30:24;6.63;;;3.97;;
29730;SDS011;16639;51.488;0.152;2024-01-30T07:32:52;5.70;;;3.85;;
29730;SDS011;16639;51.488;0.152;2024-01-30T07:35:19;5.65;;;3.58;;
29730;SDS011;16639;51.488;0.152;2024-01-30T07:37:47;4.20;;;3.40;;
29730;SDS011;16639;51.488;0.152;2024-01-30T07:40:14;7.85;;;3.78;;
29730;SDS011;16639;51.488;0.152;2024-01-30T07:42:43;8.07;;;4.13;;
29730;SDS011;16639;51.488;0.152;2024-01-30T07:45:10;6.10;;;3.55;;
29730;SDS011;16639;51.488;0.152;2024-01-30T07:47:38;7.45;;;4.05;;
29730;SDS011;16639;51.488;0.152;2024-01-30T07:50:05;3.70;;;2.78;;
29730;SDS011;16639;51.488;0.152;2024-01-30T07:52:33;5.45;;;3.15;;
29730;SDS011;16639;51.488;0.152;2024-01-30T07:55:01;5.10;;;3.42;;
29730;SDS011;16639;51.488;0.152;2024-01-30T07:57:31;5.10;;;3.15;;
29730;SDS011;16639;51.488;0.152;2024-01-30T08:00:02;3.40;;;3.10;;
29730;SDS011;16639;51.488;0.152;2024-01-30T08:02:30;5.80;;;2.85;;
29730;SDS011;16639;51.488;0.152;2024-01-30T08:04:58;4.43;;;2.85;;
29730;SDS011;16639;51.488;0.152;2024-01-30T08:07:25;6.07;;;3.00;;
29730;SDS011;16639;51.488;0.152;2024-01-30T08:09:53;3.78;;;3.10;;
29730;SDS011;16639;51.488;0.152;2024-01-30T08:12:20;3.67;;;3.20;;
29730;SDS011;16639;51.488;0.152;2024-01-30T08:14:47;3.67;;;2.42;;
29730;SDS011;16639;51.488;0.152;2024-01-30T08:17:15;4.15;;;2.70;;
29730;SDS011;16639;51.488;0.152;2024-01-30T08:19:42;3.47;;;3.13;;
29730;SDS011;16639;51.488;0.152;2024-01-30T08:22:11;2.83;;;2.63;;
29730;SDS011;16639;51.488;0.152;2024-01-30T08:24:40;3.42;;;2.45;;
29730;SDS011;16639;51.488;0.152;2024-01-30T08:27:08;2.15;;;1.95;;
29730;SDS011;16639;51.488;0.152;2024-01-30T08:29:39;3.00;;;1.85;;
29730;SDS011;16639;51.488;0.152;2024-01-30T08:32:06;1.90;;;1.80;;
29730;SDS011;16639;51.488;0.152;2024-01-30T08:34:34;2.95;;;2.20;;
29730;SDS011;16639;51.488;0.152;2024-01-30T08:37:01;3.05;;;1.67;;
29730;SDS011;16639;51.488;0.152;2024-01-30T08:39:29;2.85;;;1.60;;
29730;SDS011;16639;51.488;0.152;2024-01-30T08:41:57;1.63;;;1.52;;
29730;SDS011;16639;51.488;0.152;2024-01-30T08:44:25;4.07;;;1.83;;
29730;SDS011;16639;51.488;0.152;2024-01-30T08:46:52;1.50;;;1.40;;
29730;SDS011;16639;51.488;0.152;2024-01-30T08:49:22;1.73;;;1.55;;
29730;SDS011;16639;51.488;0.152;2024-01-30T08:51:50;2.03;;;1.63;;
29730;SDS011;16639;51.488;0.152;2024-01-30T08:54:17;1.73;;;1.50;;
29730;SDS011;16639;51.488;0.152;2024-01-30T08:56:45;1.85;;;1.20;;
29730;SDS011;16639;51.488;0.152;2024-01-30T08:59:12;1.88;;;1.45;;
29730;SDS011;16639;51.488;0.152;2024-01-30T09:01:40;4.30;;;1.77;;
29730;SDS011;16639;51.488;0.152;2024-01-30T09:04:21;2.75;;;1.52;;
29730;SDS011;16639;51.488;0.152;2024-01-30T09:06:52;2.60;;;1.67;;
29730;SDS011;16639;51.488;0.152;2024-01-30T09:09:19;4.13;;;1.67;;
29730;SDS011;16639;51.488;0.152;2024-01-30T09:11:47;3.10;;;1.35;;
29730;SDS011;16639;51.488;0.152;2024-01-30T09:14:14;6.60;;;1.75;;
29730;SDS011;16639;51.488;0.152;2024-01-30T09:16:42;3.47;;;1.38;;
29730;SDS011;16639;51.488;0.152;2024-01-30T09:19:09;1.88;;;1.52;;
29730;SDS011;16639;51.488;0.152;2024-01-30T09:21:37;2.35;;;1.70;;
29730;SDS011;16639;51.488;0.152;2024-01-30T09:24:04;2.63;;;1.95;;
29730;SDS011;16639;51.488;0.152;2024-01-30T09:26:32;2.47;;;1.70;;
29730;SDS011;16639;51.488;0.152;2024-01-30T09:28:59;8.98;;;2.25;;
29730;SDS011;16639;51.488;0.152;2024-01-30T09:31:27;2.20;;;1.75;;
29730;SDS011;16639;51.488;0.152;2024-01-30T09:33:55;3.53;;;2.10;;
29730;SDS011;16639;51.488;0.152;2024-01-30T09:36:23;4.22;;;1.80;;
29730;SDS011;16639;51.488;0.152;2024-01-30T09:38:51;4.72;;;1.73;;
29730;SDS011;16639;51.488;0.152;2024-01-30T09:41:19;2.60;;;1.65;;
29730;SDS011;16639;51.488;0.152;2024-01-30T09:43:50;2.65;;;1.80;;
29730;SDS011;16639;51.488;0.152;2024-01-30T09:46:18;2.53;;;1.42;;
29730;SDS011;16639;51.488;0.152;2024-01-30T09:48:48;2.63;;;1.80;;
29730;SDS011;16639;51.488;0.152;2024-01-30T09:51:16;3.15;;;1.40;;
29730;SDS011;16639;51.488;0.152;2024-01-30T09:53:45;3.92;;;2.10;;
29730;SDS011;16639;51.488;0.152;2024-01-30T09:56:14;1.55;;;1.45;;
29730;SDS011;16639;51.488;0.152;2024-01-30T09:58:45;2.13;;;1.65;;
29730;SDS011;16639;51.488;0.152;2024-01-30T10:01:12;3.97;;;1.83;;
29730;SDS011;16639;51.488;0.152;2024-01-30T10:03:45;1.95;;;1.42;;
29730;SDS011;16639;51.488;0.152;2024-01-30T10:06:13;2.13;;;1.40;;
29730;SDS011;16639;51.488;0.152;2024-01-30T10:08:42;3.53;;;1.27;;
29730;SDS011;16639;51.488;0.152;2024-01-30T10:11:09;4.80;;;1.48;;
29730;SDS011;16639;51.488;0.152;2024-01-30T10:13:36;1.77;;;1.35;;
29730;SDS011;16639;51.488;0.152;2024-01-30T10:16:06;4.32;;;1.50;;
29730;SDS011;16639;51.488;0.152;2024-01-30T10:18:33;3.47;;;1.48;;
29730;SDS011;16639;51.488;0.152;2024-01-30T10:21:01;1.83;;;1.27;;
29730;SDS011;16639;51.488;0.152;2024-01-30T10:23:29;2.63;;;1.40;;
29730;SDS011;16639;51.488;0.152;2024-01-30T10:26:02;2.15;;;1.67;;
29730;SDS011;16639;51.488;0.152;2024-01-30T10:28:30;2.33;;;1.55;;
29730;SDS011;16639;51.488;0.152;2024-01-30T10:31:01;5.57;;;1.65;;
29730;SDS011;16639;51.488;0.152;2024-01-30T10:33:33;4.22;;;1.35;;
29730;SDS011;16639;51.488;0.152;2024-01-30T10:36:01;1.80;;;1.67;;
29730;SDS011;16639;51.488;0.152;2024-01-30T10:38:33;1.88;;;1.42;;
29730;SDS011;16639;51.488;0.152;2024-01-30T10:41:00;1.77;;;1.63;;
29730;SDS011;16639;51.488;0.152;2024-01-30T10:43:32;1.88;;;1.67;;
29730;SDS011;16639;51.488;0.152;2024-01-30T10:46:25;11.30;;;3.20;;
29730;SDS011;16639;51.488;0.152;2024-01-30T10:48:57;5.05;;;2.13;;
29730;SDS011;16639;51.488;0.152;2024-01-30T10:51:28;2.33;;;2.07;;
29730;SDS011;16639;51.488;0.152;2024-01-30T10:53:57;2.75;;;1.55;;
29730;SDS011;16639;51.488;0.152;2024-01-30T10:56:25;4.32;;;1.80;;
29730;SDS011;16639;51.488;0.152;2024-01-30T10:58:53;4.57;;;1.70;;
29730;SDS011;16639;51.488;0.152;2024-01-30T11:01:22;3.25;;;1.70;;
29730;SDS011;16639;51.488;0.152;2024-01-30T11:03:53;3.58;;;1.38;;
29730;SDS011;16639;51.488;0.152;2024-01-30T11:06:22;3.63;;;1.40;;
29730;SDS011;16639;51.488;0.152;2024-01-30T11:09:03;1.38;;;1.27;;
29730;SDS011;16639;51.488;0.152;2024-01-30T11:14:24;3.47;;;2.10;;
29730;SDS011;16639;51.488;0.152;2024-01-30T11:16:52;8.68;;;2.38;;
29730;SDS011;16639;51.488;0.152;2024-01-30T11:19:23;1.65;;;1.38;;
29730;SDS011;16639;51.488;0.152;2024-01-30T11:21:53;2.42;;;1.65;;
29730;SDS011;16639;51.488;0.152;2024-01-30T11:24:21;3.35;;;1.17;;
29730;SDS011;16639;51.488;0.152;2024-01-30T11:26:49;1.67;;;1.52;;
29730;SDS011;16639;51.488;0.152;2024-01-30T11:29:17;2.00;;;1.08;;
29730;SDS011;16639;51.488;0.152;2024-01-30T11:31:55;1.20;;;1.10;;
29730;SDS011;16639;51.488;0.152;2024-01-30T11:34:23;2.30;;;1.23;;
29730;SDS011;16639;51.488;0.152;2024-01-30T11:36:52;1.35;;;1.23;;
29730;SDS011;16639;51.488;0.152;2024-01-30T11:39:30;1.30;;;1.15;;
29730;SDS011;16639;51.488;0.152;2024-01-30T11:41:58;3.25;;;1.38;;
29730;SDS011;16639;51.488;0.152;2024-01-30T11:44:26;6.03;;;1.25;;
29730;SDS011;16639;51.488;0.152;2024-01-30T11:46:54;1.75;;;1.30;;
29730;SDS011;16639;51.488;0.152;2024-01-30T11:49:21;1.70;;;1.10;;
29730;SDS011;16639;51.488;0.152;2024-01-30T11:51:50;4.32;;;0.90;;
29730;SDS011;16639;51.488;0.152;2024-01-30T11:54:20;4.57;;;1.52;;
29730;SDS011;16639;51.488;0.152;2024-01-30T11:56:48;1.65;;;1.27;;
29730;SDS011;16639;51.488;0.152;2024-01-30T11:59:15;2.28;;;1.33;;
29730;SDS011;16639;51.488;0.152;2024-01-30T12:01:43;1.20;;;1.10;;
29730;SDS011;16639;51.488;0.152;2024-01-30T12:04:10;4.18;;;1.13;;
29730;SDS011;16639;51.488;0.152;2024-01-30T12:06:38;4.28;;;2.25;;
29730;SDS011;16639;51.488;0.152;2024-01-30T12:09:09;3.00;;;1.20;;
29730;SDS011;16639;51.488;0.152;2024-01-30T12:11:45;1.42;;;1.30;;
29730;SDS011;16639;51.488;0.152;2024-01-30T12:14:13;1.30;;;1.10;;
29730;SDS011;16639;51.488;0.152;2024-01-30T12:16:42;6.28;;;1.02;;
29730;SDS011;16639;51.488;0.152;2024-01-30T12:19:10;0.90;;;0.90;;
29730;SDS011;16639;51.488;0.152;2024-01-30T12:21:38;0.95;;;0.95;;
29730;SDS011;16639;51.488;0.152;2024-01-30T12:24:05;1.23;;;1.00;;
29730;SDS011;16639;51.488;0.152;2024-01-30T12:26:34;1.27;;;0.90;;
29730;SDS011;16639;51.488;0.152;2024-01-30T12:29:04;1.10;;;1.00;;
29730;SDS011;16639;51.488;0.152;2024-01-30T12:31:32;2.75;;;1.48;;
29730;SDS011;16639;51.488;0.152;2024-01-30T12:34:00;3.13;;;1.65;;
29730;SDS011;16639;51.488;0.152;2024-01-30T12:36:28;6.45;;;3.13;;
29730;SDS011;16639;51.488;0.152;2024-01-30T12:38:58;4.22;;;1.77;;
29730;SDS011;16639;51.488;0.152;2024-01-30T12:41:25;4.25;;;1.00;;
29730;SDS011;16639;51.488;0.152;2024-01-30T12:43:57;1.38;;;1.25;;
29730;SDS011;16639;51.488;0.152;2024-01-30T12:46:27;0.93;;;0.93;;
29730;SDS011;16639;51.488;0.152;2024-01-30T12:48:55;3.63;;;1.42;;
29730;SDS011;16639;51.488;0.152;2024-01-30T12:51:24;5.28;;;1.13;;
29730;SDS011;16639;51.488;0.152;2024-01-30T12:53:51;1.23;;;1.13;;
29730;SDS011;16639;51.488;0.152;2024-01-30T12:56:19;5.25;;;1.17;;
29730;SDS011;16639;51.488;0.152;2024-01-30T12:58:48;1.77;;;0.98;;
29730;SDS011;16639;51.488;0.152;2024-01-30T13:01:21;2.42;;;1.20;;
29730;SDS011;16639;51.488;0.152;2024-01-30T13:03:49;2.92;;;1.63;;
29730;SDS011;16639;51.488;0.152;2024-01-30T13:06:17;1.27;;;1.00;;
29730;SDS011;16639;51.488;0.152;2024-01-30T13:08:44;6.82;;;1.30;;
29730;SDS011;16639;51.488;0.152;2024-01-30T13:11:12;0.82;;;0.82;;
29730;SDS011;16639;51.488;0.152;2024-01-30T13:13:47;1.23;;;1.00;;
29730;SDS011;16639;51.488;0.152;2024-01-30T13:16:15;1.35;;;1.05;;
29730;SDS011;16639;51.488;0.152;2024-01-30T13:18:43;1.95;;;1.10;;
29730;SDS011;16639;51.488;0.152;2024-01-30T13:21:11;2.38;;;1.40;;
29730;SDS011;16639;51.488;0.152;2024-01-30T13:23:39;8.45;;;1.15;;
29730;SDS011;16639;51.488;0.152;2024-01-30T13:26:06;1.83;;;1.10;;
29730;SDS011;16639;51.488;0.152;2024-01-30T13:28:34;4.25;;;1.10;;
29730;SDS011;16639;51.488;0.152;2024-01-30T13:31:01;2.17;;;1.20;;
29730;SDS011;16639;51.488;0.152;2024-01-30T13:33:29;2.33;;;1.00;;
29730;SDS011;16639;51.488;0.152;2024-01-30T13:35:56;1.10;;;1.00;;
29730;SDS011;16639;51.488;0.152;2024-01-30T13:38:23;2.17;;;1.23;;
29730;SDS011;16639;51.488;0.152;2024-01-30T13:40:51;3.80;;;1.08;;
29730;SDS011;16639;51.488;0.152;2024-01-30T13:43:19;7.68;;;1.40;;
29730;SDS011;16639;51.488;0.152;2024-01-30T13:45:46;2.25;;;1.08;;
29730;SDS011;16639;51.488;0.152;2024-01-30T13:48:13;3.30;;;1.67;;
29730;SDS011;16639;51.488;0.152;2024-01-30T13:50:41;3.90;;;2.45;;
29730;SDS011;16639;51.488;0.152;2024-01-30T13:53:09;4.03;;;2.67;;
29730;SDS011;16639;51.488;0.152;2024-01-30T13:55:37;6.45;;;2.33;;
29730;SDS011;16639;51.488;0.152;2024-01-30T13:58:09;2.13;;;1.70;;
29730;SDS011;16639;51.488;0.152;2024-01-30T14:00:36;2.22;;;1.35;;
29730;SDS011;16639;51.488;0.152;2024-01-30T14:03:04;1.73;;;1.10;;
29730;SDS011;16639;51.488;0.152;2024-01-30T14:05:31;1.40;;;1.23;;
29730;SDS011;16639;51.488;0.152;2024-01-30T14:07:59;4.93;;;2.58;;
29730;SDS011;16639;51.488;0.152;2024-01-30T14:10:27;2.15;;;1.27;;
29730;SDS011;16639;51.488;0.152;2024-01-30T14:12:54;3.58;;;1.10;;
29730;SDS011;16639;51.488;0.152;2024-01-30T14:15:23;1.85;;;1.13;;
29730;SDS011;16639;51.488;0.152;2024-01-30T14:17:55;1.27;;;1.02;;
29730;SDS011;16639;51.488;0.152;2024-01-30T14:20:25;2.17;;;1.25;;
29730;SDS011;16639;51.488;0.152;2024-01-30T14:22:53;3.65;;;1.20;;
29730;SDS011;16639;51.488;0.152;2024-01-30T14:25:23;3.30;;;1.30;;
29730;SDS011;16639;51.488;0.152;2024-01-30T14:27:51;1.42;;;0.85;;
29730;SDS011;16639;51.488;0.152;2024-01-30T14:30:19;2.80;;;1.00;;
29730;SDS011;16639;51.488;0.152;2024-01-30T14:32:46;3.08;;;1.10;;
29730;SDS011;16639;51.488;0.152;2024-01-30T14:35:14;1.20;;;1.10;;
29730;SDS011;16639;51.488;0.152;2024-01-30T14:37:42;1.20;;;1.10;;
29730;SDS011;16639;51.488;0.152;2024-01-30T14:40:10;2.00;;;1.00;;
29730;SDS011;16639;51.488;0.152;2024-01-30T14:42:38;2.15;;;1.17;;
29730;SDS011;16639;51.488;0.152;2024-01-30T14:45:05;2.83;;;1.77;;
29730;SDS011;16639;51.488;0.152;2024-01-30T14:47:34;1.50;;;1.35;;
29730;SDS011;16639;51.488;0.152;2024-01-30T14:50:03;4.72;;;1.05;;
29730;SDS011;16639;51.488;0.152;2024-01-30T14:52:35;1.30;;;1.00;;
29730;SDS011;16639;51.488;0.152;2024-01-30T14:55:04;2.78;;;1.35;;